METAR AND TAF INFORMATION
METAR FOR SBCI
ADDS - METARS form results

(2057 UTC 21 March 2019)
Data provider http://aviationweather.gov/metar/data/
 
METAR text: SBCI 212000Z 30001KT 9999 FEW030 32/25 Q1008
Conditions at: SBCI (CAROLINA AIRPORT, BR) observed 2000 UTC 21 March 2019
Temperature: 32.0°C (90°F)
Dewpoint: 25.0°C (77°F) [RH = 67%]
Pressure (altimeter): 29.76 inches Hg (1008.0 mb)
Winds: from the WNW (300 degrees) at 1 MPH (1 knots; 0.5 m/s)
Visibility: 6 or more miles (10+ km)
Ceiling: at least 12,000 feet AGL
Clouds: few clouds at 3000 feet AGL
Weather: no significant weather observed at this time

 AIRPORT MAP

 RUNWAY INFORMATION
Runway 11 Runway length 5906 ft Runway width 148 ft
Runway elevation 0 ft Runway displaced threshold 0 ft Runway heading 0
Runway 29 Runway length 5906 ft Runway width 148 ft
Runway elevation 0 ft Runway displaced threshold 0 ft Runway heading 0

 AIRPORT FREQUENCIES
Type AFIS Name RDO Frequency 126.6 MHZ

 AIRPORT NEAR NAVIGATION AIDS
Type VOR Name Carolina Frequency 115300 KHZ
Type NDB Name Carolina Frequency 330 KHZ



Powered by Virtual Airlines Manager [v2.6.2]